createdAt,value
2022-11-02T00:00:34.977Z,101479.06
2022-11-02T00:03:02.840Z,101480.53
2022-11-02T00:05:31.200Z,101477.72
2022-11-02T00:07:58.033Z,101478.75
2022-11-02T00:10:25.891Z,101483.28
2022-11-02T00:12:53.503Z,101481.88
2022-11-02T00:15:20.583Z,101488.25
2022-11-02T00:17:51.213Z,101486.19
2022-11-02T00:20:20.799Z,101487.59
2022-11-02T00:22:50.955Z,101478.31
2022-11-02T00:25:20.895Z,101485.28
2022-11-02T00:27:47.936Z,101486.13
2022-11-02T00:30:15.577Z,101479.94
2022-11-02T00:32:42.663Z,101480.31
2022-11-02T00:35:10.304Z,101486.06
2022-11-02T00:37:37.481Z,101478.84
2022-11-02T00:40:05.679Z,101484.56
2022-11-02T00:42:32.531Z,101482.94
2022-11-02T00:44:59.523Z,101489.50
2022-11-02T00:47:26.893Z,101488.22
2022-11-02T00:49:54.457Z,101473.19
2022-11-02T00:52:21.421Z,101490.91
2022-11-02T00:54:51.623Z,101481.44
2022-11-02T00:57:18.913Z,101479.22
2022-11-02T00:59:46.130Z,101485.63
2022-11-02T01:02:15.405Z,101489.56
2022-11-02T01:04:42.496Z,101483.00
2022-11-02T01:07:09.449Z,101489.84
2022-11-02T01:09:37.027Z,101494.38
2022-11-02T01:12:05.293Z,101484.75
2022-11-02T01:14:32.357Z,101471.00
2022-11-02T01:16:59.854Z,101470.00
2022-11-02T01:19:27.037Z,101471.25
2022-11-02T01:21:53.880Z,101481.78
2022-11-02T01:24:21.212Z,101487.56
2022-11-02T01:26:54.116Z,101477.31
2022-11-02T01:29:21.363Z,101490.91
2022-11-02T01:31:48.766Z,101494.63
2022-11-02T01:34:17.321Z,101489.50
2022-11-02T01:36:46.850Z,101486.59
2022-11-02T01:39:15.168Z,101491.72
2022-11-02T01:41:42.746Z,101489.06
2022-11-02T01:44:32.518Z,101482.44
2022-11-02T01:47:26.514Z,101481.03
2022-11-02T01:50:15.146Z,101485.34
2022-11-02T01:52:42.205Z,101471.56
2022-11-02T01:55:21.539Z,101471.97
2022-11-02T01:58:01.355Z,101457.75
2022-11-02T02:00:28.624Z,101467.44
2022-11-02T02:03:10.670Z,101464.53
2022-11-02T02:05:46.970Z,101457.38
2022-11-02T02:08:20.939Z,101456.34
2022-11-02T02:10:48.232Z,101446.31
2022-11-02T02:13:17.517Z,101442.81
2022-11-02T02:16:14.513Z,101458.03
2022-11-02T02:18:58.287Z,101463.00
2022-11-02T02:21:46.685Z,101459.13
2022-11-02T02:24:48.683Z,101458.53
2022-11-02T02:27:24.110Z,101452.97
2022-11-02T02:30:09.681Z,101459.81
2022-11-02T02:32:54.957Z,101463.72
2022-11-02T02:35:35.834Z,101449.97
2022-11-02T02:38:15.861Z,101449.59
2022-11-02T02:41:15.275Z,101444.69
2022-11-02T02:43:47.845Z,101443.47
2022-11-02T02:46:51.025Z,101449.25
2022-11-02T02:49:28.274Z,101448.88
2022-11-02T02:51:57.769Z,101451.75
2022-11-02T02:54:35.224Z,101447.66
2022-11-02T02:57:11.199Z,101452.41
2022-11-02T02:59:45.672Z,101450.75
2022-11-02T03:02:23.420Z,101445.03
2022-11-02T03:04:50.631Z,101441.97
2022-11-02T03:07:27.223Z,101444.44
2022-11-02T03:10:19.998Z,101445.69
2022-11-02T03:13:10.033Z,101443.00
2022-11-02T03:15:59.784Z,101444.84
2022-11-02T03:18:47.826Z,101445.88
2022-11-02T03:21:41.926Z,101437.88
2022-11-02T03:24:30.478Z,101440.13
2022-11-02T03:27:23.063Z,101444.66
2022-11-02T03:30:11.739Z,101441.38
2022-11-02T03:32:46.033Z,101438.69
2022-11-02T03:35:23.154Z,101445.91
2022-11-02T03:38:00.865Z,101455.56
2022-11-02T03:40:37.900Z,101446.94
2022-11-02T03:43:07.297Z,101439.94
2022-11-02T03:45:43.603Z,101445.91
2022-11-02T03:48:13.265Z,101447.75
2022-11-02T03:50:49.006Z,101445.91
2022-11-02T03:53:44.817Z,101446.50
2022-11-02T03:56:30.144Z,101444.88
2022-11-02T03:58:57.786Z,101448.56
2022-11-02T04:01:26.386Z,101436.84
2022-11-02T04:03:53.530Z,101446.09
2022-11-02T04:06:20.934Z,101446.94
2022-11-02T04:08:49.092Z,101436.22
2022-11-02T04:11:37.588Z,101444.03
2022-11-02T04:14:27.806Z,101441.38
2022-11-02T04:17:16.406Z,101441.56
2022-11-02T04:19:50.326Z,101438.28
2022-11-02T04:22:38.677Z,101444.03
2022-11-02T04:25:19.203Z,101438.28
2022-11-02T04:28:09.384Z,101443.63
2022-11-02T04:30:41.724Z,101442.78
2022-11-02T04:33:27.353Z,101441.97
2022-11-02T04:36:06.929Z,101440.34
2022-11-02T04:38:40.951Z,101435.41
2022-11-02T04:41:38.917Z,101428.22
2022-11-02T04:44:14.883Z,101438.75
2022-11-02T04:46:45.421Z,101427.88
2022-11-02T04:49:14.355Z,101438.13
2022-11-02T04:51:45.769Z,101438.13
2022-11-02T04:54:14.600Z,101445.13
2022-11-02T04:56:41.535Z,101446.59
2022-11-02T04:59:08.487Z,101437.13
2022-11-02T05:01:37.235Z,101438.56
2022-11-02T05:04:05.546Z,101443.91
2022-11-02T05:06:35.041Z,101447.41
2022-11-02T05:09:03.776Z,101445.34
2022-11-02T05:11:31.527Z,101445.34
2022-11-02T05:13:58.777Z,101448.81
2022-11-02T05:16:25.742Z,101455.81
2022-11-02T05:18:54.334Z,101442.03
2022-11-02T05:21:23.079Z,101444.09
2022-11-02T05:23:53.020Z,101441.19
2022-11-02T05:26:19.881Z,101449.38
2022-11-02T05:28:50.587Z,101464.41
2022-11-02T05:31:17.942Z,101453.91
2022-11-02T05:33:45.540Z,101455.13
2022-11-02T05:36:17.042Z,101453.28
2022-11-02T05:38:48.114Z,101449.19
2022-11-02T05:41:15.026Z,101452.88
2022-11-02T05:43:42.982Z,101452.66
2022-11-02T05:46:15.095Z,101451.63
2022-11-02T05:48:42.587Z,101458.84
2022-11-02T05:51:10.497Z,101453.28
2022-11-02T05:53:38.694Z,101446.94
2022-11-02T05:56:08.528Z,101464.81
2022-11-02T05:58:36.074Z,101445.69
2022-11-02T06:01:05.981Z,101441.75
2022-11-02T06:03:33.177Z,101447.75
2022-11-02T06:06:06.407Z,101446.94
2022-11-02T06:08:38.330Z,101449.38
2022-11-02T06:11:11.343Z,101457.19
2022-11-02T06:13:39.370Z,101467.06
2022-11-02T06:16:11.809Z,101454.50
2022-11-02T06:18:39.248Z,101462.31
2022-11-02T06:21:06.687Z,101454.28
2022-11-02T06:23:34.597Z,101455.34
2022-11-02T06:26:02.879Z,101454.69
2022-11-02T06:28:30.902Z,101460.00
2022-11-02T06:30:58.398Z,101460.81
2022-11-02T06:33:25.424Z,101458.31
2022-11-02T06:35:54.099Z,101455.41
2022-11-02T06:38:22.103Z,101451.72
2022-11-02T06:41:03.162Z,101464.66
2022-11-02T06:43:31.030Z,101466.50
2022-11-02T06:45:58.860Z,101468.75
2022-11-02T06:48:33.106Z,101464.59
2022-11-02T06:51:04.072Z,101470.56
2022-11-02T06:53:31.504Z,101467.44
2022-11-02T06:55:59.857Z,101483.66
2022-11-02T06:58:27.219Z,101478.69
2022-11-02T07:01:00.059Z,101481.34
2022-11-02T07:03:28.477Z,101473.31
2022-11-02T07:05:55.376Z,101484.78
2022-11-02T07:08:23.097Z,101480.22
2022-11-02T07:10:50.891Z,101481.41
2022-11-02T07:13:17.845Z,101486.88
2022-11-02T07:15:44.785Z,101480.44
2022-11-02T07:18:13.076Z,101468.78
2022-11-02T07:20:40.094Z,101472.31
2022-11-02T07:23:07.436Z,101481.63
2022-11-02T07:25:34.825Z,101474.47
2022-11-02T07:28:02.662Z,101480.94
2022-11-02T07:30:33.301Z,101474.78
2022-11-02T07:33:01.575Z,101470.69
2022-11-02T07:35:28.855Z,101470.78
2022-11-02T07:38:01.888Z,101462.94
2022-11-02T07:40:30.578Z,101474.91
2022-11-02T07:42:58.497Z,101480.31
2022-11-02T07:45:42.519Z,101475.31
2022-11-02T07:48:09.513Z,101476.81
2022-11-02T07:50:36.462Z,101462.84
2022-11-02T07:53:04.162Z,101480.41
2022-11-02T07:55:32.377Z,101477.19
2022-11-02T07:58:03.462Z,101469.31
2022-11-02T08:00:33.566Z,101467.94
2022-11-02T08:03:02.261Z,101466.25
2022-11-02T08:05:31.841Z,101467.03
2022-11-02T08:08:05.360Z,101466.09
2022-11-02T08:10:37.297Z,101471.38
2022-11-02T08:13:13.211Z,101464.94
2022-11-02T08:15:40.358Z,101459.22
2022-11-02T08:18:18.480Z,101467.13
2022-11-02T08:20:46.671Z,101455.56
2022-11-02T08:23:15.908Z,101458.13
2022-11-02T08:25:45.595Z,101467.31
2022-11-02T08:28:21.313Z,101452.16
2022-11-02T08:30:48.311Z,101458.56
2022-11-02T08:33:17.371Z,101477.22
2022-11-02T08:35:46.063Z,101470.13
2022-11-02T08:38:13.495Z,101476.81
2022-11-02T08:40:41.495Z,101475.47
2022-11-02T08:43:13.754Z,101464.38
2022-11-02T08:46:13.354Z,101465.97
2022-11-02T08:48:31.195Z,101467.81
2022-11-02T08:50:58.087Z,101463.63
2022-11-02T08:53:25.597Z,101463.28
2022-11-02T08:55:52.598Z,101471.31
2022-11-02T08:58:19.466Z,101463.63
2022-11-02T09:00:46.459Z,101479.66
2022-11-02T09:03:15.574Z,101481.97
2022-11-02T09:05:45.649Z,101475.38
2022-11-02T09:08:18.750Z,101469.38
2022-11-02T09:10:50.330Z,101477.06
2022-11-02T09:13:22.083Z,101478.06
2022-11-02T09:15:58.366Z,101469.09
2022-11-02T09:18:25.529Z,101473.75
2022-11-02T09:20:52.498Z,101471.75
2022-11-02T09:23:21.476Z,101469.09
2022-11-02T09:25:49.998Z,101471.56
2022-11-02T09:28:17.371Z,101470.97
2022-11-02T09:30:44.505Z,101472.44
2022-11-02T09:33:11.916Z,101462.19
2022-11-02T09:35:45.170Z,101464.94
2022-11-02T09:38:12.537Z,101472.38
2022-11-02T09:40:44.634Z,101476.13
2022-11-02T09:43:22.530Z,101465.53
2022-11-02T09:45:58.372Z,101470.03
2022-11-02T09:49:01.799Z,101460.38
2022-11-02T09:51:55.455Z,101457.69
2022-11-02T09:54:31.911Z,101462.03
2022-11-02T09:57:06.500Z,101465.47
2022-11-02T09:59:34.418Z,101457.75
2022-11-02T10:02:16.197Z,101457.31
2022-11-02T10:05:28.929Z,101467.75
2022-11-02T10:08:32.427Z,101458.28
2022-11-02T10:11:44.318Z,101453.91
2022-11-02T10:14:28.924Z,101452.22
2022-11-02T10:17:10.960Z,101445.91
2022-11-02T10:19:46.123Z,101443.53
2022-11-02T10:22:16.163Z,101447.63
2022-11-02T10:24:46.393Z,101446.38
2022-11-02T10:27:27.166Z,101437.59
2022-11-02T10:30:05.730Z,101437.81
2022-11-02T10:32:36.758Z,101448.66
2022-11-02T10:35:33.997Z,101440.22
2022-11-02T10:38:58.683Z,101436.31
2022-11-02T10:41:44.562Z,101447.28
2022-11-02T10:44:51.240Z,101446.78
2022-11-02T10:47:26.576Z,101445.13
2022-11-02T10:50:32.966Z,101441.03
2022-11-02T10:53:27.499Z,101446.84
2022-11-02T10:56:03.920Z,101452.53
2022-11-02T10:58:33.892Z,101448.00
2022-11-02T11:01:12.629Z,101441.13
2022-11-02T11:04:06.781Z,101438.91
2022-11-02T11:06:40.857Z,101436.19
2022-11-02T11:09:25.325Z,101450.66
2022-11-02T11:12:02.360Z,101446.25
2022-11-02T11:20:36.638Z,101455.38
2022-11-02T11:23:10.012Z,101453.25
2022-11-02T11:25:43.072Z,101472.69
2022-11-02T11:28:30.093Z,101470.81
2022-11-02T11:31:04.213Z,101472.63
2022-11-02T11:33:33.623Z,101477.97
2022-11-02T11:36:00.677Z,101485.06
2022-11-02T11:38:27.997Z,101494.19
2022-11-02T11:40:59.699Z,101489.66
2022-11-02T11:43:34.899Z,101482.56
2022-11-02T11:46:07.001Z,101500.22
2022-11-02T11:48:53.001Z,101491.63
2022-11-02T11:51:35.917Z,101486.53
2022-11-02T11:54:26.979Z,101479.25
2022-11-02T11:57:32.174Z,101477.97
2022-11-02T12:00:04.679Z,101495.66
2022-11-02T12:02:42.749Z,101482.63
2022-11-02T12:05:15.878Z,101484.53
2022-11-02T12:08:10.907Z,101486.13
2022-11-02T12:11:08.640Z,101476.91
2022-11-02T12:14:06.761Z,101482.03
2022-11-02T12:17:17.440Z,101490.09
2022-11-02T12:20:29.707Z,101493.84
2022-11-02T12:23:35.519Z,101486.53
2022-11-02T12:26:55.191Z,101486.25
2022-11-02T12:29:44.304Z,101484.91
2022-11-02T12:32:26.215Z,101476.06
2022-11-02T12:35:27.377Z,101485.31
2022-11-02T12:38:23.574Z,101463.91
2022-11-02T12:41:13.620Z,101463.03
2022-11-02T12:43:47.818Z,101469.13
2022-11-02T12:46:42.216Z,101483.63
2022-11-02T12:49:50.724Z,101454.09
2022-11-02T12:52:44.935Z,101454.78
2022-11-02T12:55:25.330Z,101465.97
2022-11-02T12:58:00.721Z,101460.00
2022-11-02T13:00:29.381Z,101465.59
2022-11-02T13:03:37.870Z,101466.78
2022-11-02T13:06:13.788Z,101466.72
2022-11-02T13:08:53.343Z,101482.75
2022-11-02T13:11:32.954Z,101474.22
2022-11-02T13:14:02.886Z,101515.91
2022-11-02T13:16:46.612Z,101486.66
2022-11-02T13:19:23.362Z,101468.63
2022-11-02T13:21:56.302Z,101479.78
2022-11-02T13:24:31.921Z,101479.81
2022-11-02T13:27:21.967Z,101472.72
2022-11-02T13:29:57.516Z,101484.91
2022-11-02T13:32:41.997Z,101475.97
2022-11-02T13:35:26.251Z,101477.09
2022-11-02T13:38:17.427Z,101483.09
2022-11-02T13:41:28.187Z,101466.16
2022-11-02T13:44:55.976Z,101491.19
2022-11-02T13:47:53.554Z,101474.09
2022-11-02T13:50:23.882Z,101484.31
2022-11-02T13:53:05.147Z,101472.53
2022-11-02T13:55:52.409Z,101477.41
2022-11-02T13:58:33.396Z,101467.09
2022-11-02T14:01:05.381Z,101485.56
2022-11-02T14:03:55.006Z,101477.03
2022-11-02T14:06:26.628Z,101478.00
2022-11-02T14:08:58.584Z,101455.88
2022-11-02T14:11:33.917Z,101472.03
2022-11-02T14:14:04.197Z,101481.38
2022-11-02T14:16:44.461Z,101483.91
2022-11-02T14:19:20.978Z,101479.09
2022-11-02T14:21:51.344Z,101489.78
2022-11-02T14:24:33.537Z,101502.91
2022-11-02T14:27:07.549Z,101494.50
2022-11-02T14:29:51.695Z,101498.09
2022-11-02T14:32:21.552Z,101495.66
2022-11-02T14:35:26.575Z,101493.19
2022-11-02T14:38:36.044Z,101500.00
2022-11-02T14:41:36.944Z,101504.56
2022-11-02T14:44:18.933Z,101510.00
2022-11-02T14:47:09.838Z,101517.03
2022-11-02T14:49:50.106Z,101518.94
2022-11-02T14:52:25.554Z,101522.97
2022-11-02T14:55:21.279Z,101528.41
2022-11-02T14:58:10.809Z,101542.50
2022-11-02T15:00:56.352Z,101548.72
2022-11-02T15:03:26.455Z,101542.72
2022-11-02T15:06:24.645Z,101560.81
2022-11-02T15:08:58.085Z,101547.75
2022-11-02T15:11:58.591Z,101554.47
2022-11-02T15:14:48.950Z,101551.66
2022-11-02T15:17:16.108Z,101564.06
2022-11-02T15:19:53.523Z,101563.13
2022-11-02T15:22:34.145Z,101567.59
2022-11-02T15:25:18.907Z,101579.19
2022-11-02T15:27:47.094Z,101570.94
2022-11-02T15:30:28.366Z,101572.97
2022-11-02T15:33:02.386Z,101573.41
2022-11-02T15:35:39.108Z,101581.16
2022-11-02T15:38:30.393Z,101579.75
2022-11-02T15:41:16.893Z,101586.34
2022-11-02T15:44:34.912Z,101590.81
2022-11-02T15:47:19.478Z,101599.31
2022-11-02T15:50:14.702Z,101603.53
2022-11-02T15:53:21.701Z,101603.97
2022-11-02T15:56:26.004Z,101611.34
2022-11-02T15:59:37.087Z,101618.50
2022-11-02T16:02:27.216Z,101612.97
2022-11-02T16:05:01.428Z,101609.06
2022-11-02T16:07:38.432Z,101609.78
2022-11-02T16:10:28.172Z,101623.22
2022-11-02T16:13:10.631Z,101623.13
2022-11-02T16:15:38.675Z,101617.59
2022-11-02T16:18:05.640Z,101629.13
2022-11-02T16:20:40.079Z,101621.28
2022-11-02T16:23:13.136Z,101627.91
2022-11-02T16:25:47.935Z,101619.16
2022-11-02T16:28:26.664Z,101620.72
2022-11-02T16:31:18.558Z,101632.25
2022-11-02T16:34:01.900Z,101629.72
2022-11-02T16:36:32.026Z,101642.03
2022-11-02T16:39:02.238Z,101631.16
2022-11-02T16:41:36.509Z,101638.31
2022-11-02T16:44:10.924Z,101639.88
2022-11-02T16:46:47.480Z,101639.53
2022-11-02T16:49:19.532Z,101644.13
2022-11-02T16:52:00.536Z,101657.03
2022-11-02T16:54:40.818Z,101656.94
2022-11-02T16:57:32.729Z,101663.41
2022-11-02T17:00:11.385Z,101657.56
2022-11-02T17:02:41.024Z,101662.16
2022-11-02T17:05:25.916Z,101663.22
2022-11-02T17:08:25.907Z,101669.56
2022-11-02T17:10:57.123Z,101674.84
2022-11-02T17:13:27.231Z,101675.09
2022-11-02T17:15:56.805Z,101684.47
2022-11-02T17:18:29.196Z,101686.81
2022-11-02T17:21:20.858Z,101681.91
2022-11-02T17:23:48.637Z,101690.13
2022-11-02T17:26:27.506Z,101694.09
2022-11-02T17:29:26.064Z,101688.38
2022-11-02T17:31:56.714Z,101685.25
2022-11-02T17:34:23.859Z,101683.59
2022-11-02T17:36:52.133Z,101698.34
2022-11-02T17:39:22.329Z,101693.44
2022-11-02T17:42:36.112Z,101693.09
2022-11-02T17:45:21.059Z,101702.69
2022-11-02T17:47:48.100Z,101698.00
2022-11-02T17:50:15.042Z,101698.91
2022-11-02T17:52:42.111Z,101702.66
2022-11-02T17:55:27.794Z,101712.59
2022-11-02T17:57:56.055Z,101711.06
2022-11-02T18:00:24.158Z,101719.16
2022-11-02T18:02:58.459Z,101710.97
2022-11-02T18:05:29.079Z,101716.00
2022-11-02T18:07:58.382Z,101722.91
2022-11-02T18:10:47.545Z,101720.09
2022-11-02T18:13:18.988Z,101715.88
2022-11-02T18:15:46.319Z,101713.88
2022-11-02T18:18:13.517Z,101716.69
2022-11-02T18:20:42.308Z,101715.28
2022-11-02T18:23:16.508Z,101722.97
2022-11-02T18:25:43.568Z,101724.97
2022-11-02T18:28:10.412Z,101737.47
2022-11-02T18:30:37.424Z,101737.78
2022-11-02T18:33:05.234Z,101724.81
2022-11-02T18:35:34.366Z,101729.22
2022-11-02T18:38:01.196Z,101732.59
2022-11-02T18:40:32.788Z,101731.03
2022-11-02T18:43:02.390Z,101722.84
2022-11-02T18:48:01.676Z,101734.75
2022-11-02T18:50:28.512Z,101730.88
2022-11-02T18:52:55.630Z,101723.47
2022-11-02T18:55:22.522Z,101726.84
2022-11-02T18:57:51.113Z,101736.75
2022-11-02T19:00:18.652Z,101729.59
2022-11-02T19:02:45.634Z,101732.38
2022-11-02T19:05:31.220Z,101747.00
2022-11-02T19:08:19.494Z,101742.31
2022-11-02T19:10:48.411Z,101747.31
2022-11-02T19:13:15.369Z,101744.47
2022-11-02T19:15:43.000Z,101741.19
2022-11-02T19:18:10.195Z,101744.94
2022-11-02T19:20:37.173Z,101734.88
2022-11-02T19:23:04.082Z,101736.13
2022-11-02T19:25:31.424Z,101735.78
2022-11-02T19:27:59.273Z,101735.41
2022-11-02T19:30:26.411Z,101737.34
2022-11-02T19:32:53.369Z,101738.81
2022-11-02T19:35:20.342Z,101745.66
2022-11-02T19:37:47.160Z,101742.81
2022-11-02T19:40:14.280Z,101743.13
2022-11-02T19:42:41.433Z,101738.41
2022-11-02T19:45:16.478Z,101744.47
2022-11-02T19:47:44.113Z,101738.34
2022-11-02T19:50:11.375Z,101747.28
2022-11-02T19:52:38.439Z,101753.97
2022-11-02T19:55:05.852Z,101754.25
2022-11-02T19:57:33.468Z,101754.09
2022-11-02T20:00:00.583Z,101750.00
2022-11-02T20:02:27.545Z,101751.69
2022-11-02T20:04:54.397Z,101751.13
2022-11-02T20:07:21.802Z,101758.00
2022-11-02T20:09:48.657Z,101761.78
2022-11-02T20:12:15.671Z,101773.38
2022-11-02T20:14:43.009Z,101763.13
2022-11-02T20:17:31.885Z,101773.44
2022-11-02T20:19:57.131Z,101775.34
2022-11-02T20:22:23.990Z,101777.63
2022-11-02T20:24:50.964Z,101777.66
2022-11-02T20:27:17.926Z,101770.28
2022-11-02T20:29:46.245Z,101777.91
2022-11-02T20:32:13.077Z,101785.56
2022-11-02T20:34:40.255Z,101781.88
2022-11-02T20:37:07.531Z,101788.09
2022-11-02T20:39:34.420Z,101787.25
2022-11-02T20:42:01.388Z,101791.41
2022-11-02T20:44:28.327Z,101788.53
2022-11-02T20:46:55.208Z,101790.63
2022-11-02T20:49:48.688Z,101788.19
2022-11-02T20:52:10.153Z,101793.94
2022-11-02T20:54:37.327Z,101786.56
2022-11-02T20:57:04.775Z,101791.91
2022-11-02T20:59:31.608Z,101799.94
2022-11-02T21:01:58.801Z,101805.53
2022-11-02T21:04:25.666Z,101789.06
2022-11-02T21:06:53.354Z,101806.78
2022-11-02T21:09:21.072Z,101799.38
2022-11-02T21:12:06.333Z,101798.56
2022-11-02T21:14:33.556Z,101797.09
2022-11-02T21:17:02.526Z,101805.94
2022-11-02T21:19:29.942Z,101810.88
2022-11-02T21:21:59.948Z,101814.16
2022-11-02T21:24:28.807Z,101805.94
2022-11-02T21:26:55.640Z,101804.69
2022-11-02T21:29:22.989Z,101799.97
2022-11-02T21:31:49.869Z,101805.09
2022-11-02T21:34:16.783Z,101808.38
2022-11-02T21:36:43.755Z,101811.47
2022-11-02T21:39:10.723Z,101814.53
2022-11-02T21:41:38.919Z,101800.97
2022-11-02T21:44:08.142Z,101812.06
2022-11-02T21:46:35.746Z,101807.34
2022-11-02T21:49:03.253Z,101803.22
2022-11-02T21:51:30.267Z,101797.47
2022-11-02T21:53:57.212Z,101810.19
2022-11-02T21:56:26.926Z,101810.41
2022-11-02T21:58:56.260Z,101799.50
2022-11-02T22:01:50.151Z,101803.19
2022-11-02T22:04:24.912Z,101804.63
2022-11-02T22:06:52.628Z,101797.59
2022-11-02T22:09:19.665Z,101803.13
2022-11-02T22:11:47.261Z,101794.09
2022-11-02T22:14:14.237Z,101794.28
2022-11-02T22:16:43.290Z,101799.00
2022-11-02T22:19:13.740Z,101798.56
2022-11-02T22:21:44.045Z,101794.00
2022-11-02T22:24:11.610Z,101792.13
2022-11-02T22:26:39.777Z,101795.00
2022-11-02T22:29:07.951Z,101803.19
2022-11-02T22:31:38.930Z,101800.91
2022-11-02T22:34:08.462Z,101796.38
2022-11-02T22:36:36.893Z,101793.88
2022-11-02T22:39:06.607Z,101795.09
2022-11-02T22:41:37.643Z,101783.56
2022-11-02T22:44:10.588Z,101791.16
2022-11-02T22:46:41.332Z,101793.59
2022-11-02T22:49:10.592Z,101790.69
2022-11-02T22:51:44.246Z,101785.94
2022-11-02T22:54:15.502Z,101786.69
2022-11-02T22:56:44.899Z,101788.94
2022-11-02T22:59:12.287Z,101789.72
2022-11-02T23:01:39.979Z,101790.94
2022-11-02T23:04:07.669Z,101783.72
2022-11-02T23:06:34.911Z,101788.19
2022-11-02T23:09:02.306Z,101791.22
2022-11-02T23:11:36.242Z,101788.13
2022-11-02T23:14:12.994Z,101793.03
2022-11-02T23:16:49.166Z,101786.00
2022-11-02T23:19:25.108Z,101795.59
2022-11-02T23:22:27.257Z,101785.72
2022-11-02T23:25:11.916Z,101778.50
2022-11-02T23:28:06.247Z,101791.75
2022-11-02T23:30:54.566Z,101783.50
2022-11-02T23:33:24.644Z,101774.84
2022-11-02T23:36:10.170Z,101783.00
2022-11-02T23:39:07.182Z,101784.56
2022-11-02T23:41:38.725Z,101774.88
2022-11-02T23:44:12.447Z,101770.13
2022-11-02T23:46:48.658Z,101770.69
2022-11-02T23:49:19.456Z,101770.44
2022-11-02T23:52:05.014Z,101782.94
2022-11-02T23:54:50.618Z,101764.88
2022-11-02T23:57:18.581Z,101773.56
2022-11-02T23:59:45.409Z,101772.13
